Time;durP1;ratioP1;P1;durP2;ratioP2;P2;SDS_P1;SDS_P2;PMS_P1;PMS_P2;Temp;Humidity;BMP_temperature;BMP_pressure;BME280_temperature;BME280_humidity;BME280_pressure;Samples;Min_cycle;Max_cycle;Signal;HPM_P1;HPM_P2
2021/03/17 00:00:37;;;;;;;28.97;15.63;;;;;;;;;;4154572;34;20333;-59
2021/03/17 00:03:03;;;;;;;18.40;10.70;;;;;;;;;;4145569;34;20199;-59
2021/03/17 00:05:31;;;;;;;14.60;9.63;;;;;;;;;;4155147;34;20361;-58
2021/03/17 00:07:56;;;;;;;16.53;10.70;;;;;;;;;;4144675;34;20299;-58
2021/03/17 00:10:23;;;;;;;15.80;10.17;;;;;;;;;;4150785;34;20283;-58
2021/03/17 00:12:51;;;;;;;21.27;12.87;;;;;;;;;;4158526;34;20622;-60
2021/03/17 00:15:22;;;;;;;20.90;12.40;;;;;;;;;;4152226;34;20290;-62
2021/03/17 00:17:50;;;;;;;21.30;11.67;;;;;;;;;;4144972;34;20219;-63
2021/03/17 00:20:17;;;;;;;19.93;12.17;;;;;;;;;;4144865;34;20354;-65
2021/03/17 00:22:43;;;;;;;17.03;10.73;;;;;;;;;;4145402;34;20196;-64
2021/03/17 00:25:10;;;;;;;16.40;10.83;;;;;;;;;;4144823;34;20651;-64
2021/03/17 00:27:35;;;;;;;21.60;11.47;;;;;;;;;;4144729;34;20252;-63
2021/03/17 00:30:02;;;;;;;23.10;13.03;;;;;;;;;;4159181;34;20785;-64
2021/03/17 00:32:28;;;;;;;10.93;8.53;;;;;;;;;;4158832;34;20229;-65
2021/03/17 00:34:53;;;;;;;9.13;7.83;;;;;;;;;;4164500;34;20298;-62
2021/03/17 00:37:19;;;;;;;8.03;6.47;;;;;;;;;;4145101;34;20299;-61
2021/03/17 00:39:44;;;;;;;7.60;6.67;;;;;;;;;;4144359;34;20267;-60
2021/03/17 00:42:10;;;;;;;14.40;9.17;;;;;;;;;;4151387;34;20320;-61
2021/03/17 00:44:35;;;;;;;20.00;11.20;;;;;;;;;;4147859;34;20266;-63
2021/03/17 00:47:01;;;;;;;10.03;6.60;;;;;;;;;;4158480;34;20318;-64
2021/03/17 00:49:27;;;;;;;13.03;9.60;;;;;;;;;;4165829;34;20227;-63
2021/03/17 00:51:52;;;;;;;13.17;8.93;;;;;;;;;;4155046;34;20314;-62
2021/03/17 00:54:18;;;;;;;11.13;7.97;;;;;;;;;;4154915;34;20224;-64
2021/03/17 00:56:44;;;;;;;14.00;8.77;;;;;;;;;;4144893;34;20791;-64
2021/03/17 00:59:09;;;;;;;12.33;7.83;;;;;;;;;;4144378;34;20656;-64
2021/03/17 01:01:35;;;;;;;12.47;8.10;;;;;;;;;;4144506;34;20361;-65
2021/03/17 01:04:00;;;;;;;7.73;6.47;;;;;;;;;;4144881;34;20224;-63
2021/03/17 01:06:26;;;;;;;11.30;7.17;;;;;;;;;;4152224;34;20402;-64
2021/03/17 01:08:52;;;;;;;7.87;6.53;;;;;;;;;;4131186;34;20255;-66
2021/03/17 01:11:17;;;;;;;8.03;6.67;;;;;;;;;;4145080;34;20287;-62
2021/03/17 01:13:43;;;;;;;8.37;6.73;;;;;;;;;;4144929;34;20292;-63
2021/03/17 01:16:09;;;;;;;13.33;6.73;;;;;;;;;;4144554;34;20286;-66
2021/03/17 01:18:34;;;;;;;9.27;6.93;;;;;;;;;;4154748;34;20336;-65
2021/03/17 01:21:00;;;;;;;9.47;6.70;;;;;;;;;;4144039;34;20312;-64
2021/03/17 01:23:26;;;;;;;9.83;6.77;;;;;;;;;;4144402;34;20379;-59
2021/03/17 01:25:51;;;;;;;10.53;6.40;;;;;;;;;;4144394;34;20721;-59
2021/03/17 01:28:17;;;;;;;14.43;6.63;;;;;;;;;;4144802;34;20756;-60
2021/03/17 01:30:49;;;;;;;7.27;6.57;;;;;;;;;;4152902;34;20400;-62
2021/03/17 01:33:15;;;;;;;10.43;6.43;;;;;;;;;;4158485;34;20568;-63
2021/03/17 01:35:44;;;;;;;9.20;6.20;;;;;;;;;;4149781;34;20325;-63
2021/03/17 01:38:10;;;;;;;8.43;7.27;;;;;;;;;;4144796;34;20342;-64
2021/03/17 01:40:39;;;;;;;12.87;7.47;;;;;;;;;;4145628;34;20327;-63
2021/03/17 01:43:05;;;;;;;10.37;7.50;;;;;;;;;;4150485;34;20327;-62
2021/03/17 01:45:31;;;;;;;6.53;5.83;;;;;;;;;;4144252;34;20234;-62
2021/03/17 01:47:57;;;;;;;7.20;5.77;;;;;;;;;;4154852;34;20346;-61
2021/03/17 01:50:35;;;;;;;7.50;5.80;;;;;;;;;;4153767;34;20256;-64
2021/03/17 01:53:12;;;;;;;7.53;6.13;;;;;;;;;;4155002;34;20669;-64
2021/03/17 01:55:38;;;;;;;10.97;7.10;;;;;;;;;;4144504;34;20334;-64
2021/03/17 01:58:04;;;;;;;10.80;6.60;;;;;;;;;;4144599;34;20241;-64
2021/03/17 02:00:30;;;;;;;15.93;9.23;;;;;;;;;;4153721;34;20304;-64
2021/03/17 02:02:56;;;;;;;15.70;10.33;;;;;;;;;;4144493;34;20314;-64
2021/03/17 02:05:42;;;;;;;10.40;7.97;;;;;;;;;;4144321;34;20317;-66
2021/03/17 02:08:11;;;;;;;10.03;7.43;;;;;;;;;;4151808;34;21555;-63
2021/03/17 02:10:37;;;;;;;9.43;7.40;;;;;;;;;;4144367;34;20333;-65
2021/03/17 02:13:31;;;;;;;8.10;7.10;;;;;;;;;;4154532;34;20379;-67
2021/03/17 02:16:10;;;;;;;8.67;7.77;;;;;;;;;;4156508;34;20330;-64
2021/03/17 02:18:42;;;;;;;8.07;7.23;;;;;;;;;;4146528;34;20254;-64
2021/03/17 02:21:15;;;;;;;10.23;7.80;;;;;;;;;;4156833;34;20290;-66
2021/03/17 02:23:53;;;;;;;7.90;7.17;;;;;;;;;;4160419;34;20266;-63
2021/03/17 02:26:21;;;;;;;8.13;7.30;;;;;;;;;;4158173;34;20250;-63
2021/03/17 02:28:58;;;;;;;10.87;7.33;;;;;;;;;;4146160;34;20341;-63
2021/03/17 02:31:51;;;;;;;8.37;7.47;;;;;;;;;;4145907;34;20243;-62
2021/03/17 02:34:23;;;;;;;7.20;6.50;;;;;;;;;;4146501;34;20371;-63
2021/03/17 02:37:08;;;;;;;10.73;7.77;;;;;;;;;;4146503;34;20200;-63
2021/03/17 02:39:45;;;;;;;11.90;9.43;;;;;;;;;;4156348;34;20676;-63
2021/03/17 02:42:14;;;;;;;15.27;10.83;;;;;;;;;;4153641;34;20305;-63
2021/03/17 02:44:56;;;;;;;16.50;12.37;;;;;;;;;;4156419;34;20279;-64
2021/03/17 02:47:24;;;;;;;10.40;9.00;;;;;;;;;;4146874;34;20200;-64
2021/03/17 02:49:55;;;;;;;10.70;8.57;;;;;;;;;;4145974;34;20338;-61
2021/03/17 02:52:22;;;;;;;11.03;8.53;;;;;;;;;;4156012;34;20281;-63
2021/03/17 02:54:49;;;;;;;10.87;8.37;;;;;;;;;;4145967;34;20281;-63
2021/03/17 02:57:18;;;;;;;8.73;7.63;;;;;;;;;;4146537;34;20220;-64
2021/03/17 02:59:46;;;;;;;9.33;7.97;;;;;;;;;;4158983;34;20231;-63
2021/03/17 03:02:12;;;;;;;12.57;9.63;;;;;;;;;;4169891;34;20253;-62
2021/03/17 03:04:39;;;;;;;12.40;9.67;;;;;;;;;;4157153;34;20339;-63
2021/03/17 03:07:05;;;;;;;11.53;9.43;;;;;;;;;;4145888;34;20300;-61
2021/03/17 03:09:31;;;;;;;15.77;8.80;;;;;;;;;;4146882;34;20691;-60
2021/03/17 03:11:58;;;;;;;9.83;8.60;;;;;;;;;;4159279;34;20322;-63
2021/03/17 03:14:25;;;;;;;7.97;7.10;;;;;;;;;;4145315;34;20623;-61
2021/03/17 03:16:56;;;;;;;10.43;7.83;;;;;;;;;;4146206;34;20285;-60
2021/03/17 03:19:24;;;;;;;11.07;8.03;;;;;;;;;;4145794;34;20227;-61
2021/03/17 03:21:53;;;;;;;11.53;7.77;;;;;;;;;;4145891;34;20208;-59
2021/03/17 03:24:19;;;;;;;9.20;7.70;;;;;;;;;;4155425;34;20263;-67
2021/03/17 03:26:50;;;;;;;8.40;7.47;;;;;;;;;;4145704;34;20294;-65
2021/03/17 03:29:16;;;;;;;9.03;7.67;;;;;;;;;;4145306;34;20243;-64
2021/03/17 03:31:42;;;;;;;11.43;8.57;;;;;;;;;;4156012;34;20251;-63
2021/03/17 03:34:08;;;;;;;12.00;8.63;;;;;;;;;;4155709;34;20280;-64
2021/03/17 03:36:34;;;;;;;10.37;7.87;;;;;;;;;;4153138;34;20315;-62
2021/03/17 03:39:00;;;;;;;14.07;9.30;;;;;;;;;;4153789;34;20366;-63
2021/03/17 03:41:27;;;;;;;8.87;7.97;;;;;;;;;;4162398;34;20310;-62
2021/03/17 03:43:53;;;;;;;11.70;9.13;;;;;;;;;;4158194;34;20392;-62
2021/03/17 03:46:19;;;;;;;10.67;7.67;;;;;;;;;;4145021;34;20283;-63
2021/03/17 03:48:45;;;;;;;10.00;8.57;;;;;;;;;;4145738;34;20257;-63
2021/03/17 03:51:10;;;;;;;16.40;9.63;;;;;;;;;;4156037;34;20286;-62
2021/03/17 03:53:59;;;;;;;16.83;11.30;;;;;;;;;;4159099;34;20304;-63
2021/03/17 03:56:37;;;;;;;23.03;15.17;;;;;;;;;;4146639;34;20305;-62
2021/03/17 03:59:14;;;;;;;18.50;12.23;;;;;;;;;;4155687;34;20324;-63
2021/03/17 04:01:44;;;;;;;13.33;9.93;;;;;;;;;;4155557;34;20219;-61
2021/03/17 04:04:14;;;;;;;12.37;9.57;;;;;;;;;;4145302;34;20357;-67
2021/03/17 04:06:45;;;;;;;9.33;8.23;;;;;;;;;;4145166;34;20707;-67
2021/03/17 04:09:15;;;;;;;14.50;10.00;;;;;;;;;;4145378;34;20220;-65
2021/03/17 04:11:43;;;;;;;20.90;11.20;;;;;;;;;;4143811;34;20624;-68
2021/03/17 04:14:09;;;;;;;23.00;11.70;;;;;;;;;;4145073;34;20436;-70
2021/03/17 04:16:38;;;;;;;20.97;10.57;;;;;;;;;;4144869;34;20290;-66
2021/03/17 04:19:05;;;;;;;25.47;12.57;;;;;;;;;;4145511;34;20550;-69
2021/03/17 04:21:33;;;;;;;18.27;10.60;;;;;;;;;;4144983;34;20238;-73
2021/03/17 04:24:02;;;;;;;15.10;8.37;;;;;;;;;;4155321;34;20243;-76
2021/03/17 04:26:31;;;;;;;10.00;7.73;;;;;;;;;;4154669;34;20211;-74
2021/03/17 04:28:57;;;;;;;10.93;7.30;;;;;;;;;;4152776;34;20761;-75
2021/03/17 04:31:25;;;;;;;15.10;9.77;;;;;;;;;;4136547;34;20223;-73
2021/03/17 04:33:52;;;;;;;14.43;9.33;;;;;;;;;;4145088;34;20334;-75
2021/03/17 04:36:19;;;;;;;13.93;10.50;;;;;;;;;;4144497;34;20212;-78
2021/03/17 04:38:46;;;;;;;16.90;10.43;;;;;;;;;;4155453;34;20265;-73
2021/03/17 04:41:13;;;;;;;9.93;8.87;;;;;;;;;;4149056;34;20775;-75
2021/03/17 04:43:42;;;;;;;10.83;8.43;;;;;;;;;;4157903;34;20662;-75
2021/03/17 04:46:10;;;;;;;13.37;8.70;;;;;;;;;;4154645;34;20240;-75
2021/03/17 04:48:38;;;;;;;11.57;9.10;;;;;;;;;;4145046;34;20219;-77
2021/03/17 04:51:05;;;;;;;12.17;7.87;;;;;;;;;;4144365;34;20314;-76
2021/03/17 04:53:31;;;;;;;7.90;6.93;;;;;;;;;;4145139;34;20276;-78
2021/03/17 04:55:57;;;;;;;8.03;6.87;;;;;;;;;;4152246;34;20335;-76
2021/03/17 04:58:25;;;;;;;7.30;6.57;;;;;;;;;;4155004;34;20265;-78
2021/03/17 05:00:53;;;;;;;8.60;6.30;;;;;;;;;;4144386;34;20335;-74
2021/03/17 05:03:22;;;;;;;7.93;7.13;;;;;;;;;;4145105;34;20665;-73
2021/03/17 05:05:50;;;;;;;7.77;6.97;;;;;;;;;;4144299;34;20246;-75
2021/03/17 05:08:18;;;;;;;9.23;7.67;;;;;;;;;;4143960;34;20223;-74
2021/03/17 05:10:45;;;;;;;10.70;7.90;;;;;;;;;;4146577;34;20325;-74
2021/03/17 05:13:13;;;;;;;11.17;7.77;;;;;;;;;;4154710;34;20598;-74
2021/03/17 05:15:39;;;;;;;9.50;7.03;;;;;;;;;;4144715;34;20199;-77
2021/03/17 05:18:07;;;;;;;10.90;7.77;;;;;;;;;;4145066;34;20271;-76
2021/03/17 05:20:33;;;;;;;7.63;6.77;;;;;;;;;;4155107;34;20263;-77
2021/03/17 05:23:00;;;;;;;10.77;8.20;;;;;;;;;;4145408;34;20236;-78
2021/03/17 05:25:28;;;;;;;17.17;7.80;;;;;;;;;;4145564;34;20315;-79
2021/03/17 05:27:55;;;;;;;7.50;6.70;;;;;;;;;;4145269;34;20222;-76
2021/03/17 05:30:24;;;;;;;7.80;7.00;;;;;;;;;;4155392;34;20238;-79
2021/03/17 05:32:52;;;;;;;10.13;8.23;;;;;;;;;;4153634;34;20693;-80
2021/03/17 05:35:18;;;;;;;10.53;7.70;;;;;;;;;;4133183;34;20223;-61
2021/03/17 05:37:48;;;;;;;9.17;7.30;;;;;;;;;;4155355;34;20298;-60
2021/03/17 05:40:15;;;;;;;13.23;9.13;;;;;;;;;;4149112;34;20294;-66
2021/03/17 05:42:43;;;;;;;12.90;8.30;;;;;;;;;;4150560;34;20238;-70
2021/03/17 05:45:12;;;;;;;11.13;9.03;;;;;;;;;;4144520;34;20753;-70
2021/03/17 05:47:42;;;;;;;18.43;10.40;;;;;;;;;;4153986;34;20227;-67
2021/03/17 05:50:09;;;;;;;10.97;8.20;;;;;;;;;;4146959;34;20759;-72
2021/03/17 05:52:34;;;;;;;13.90;10.20;;;;;;;;;;4168847;34;20348;-66
2021/03/17 05:55:00;;;;;;;12.73;10.23;;;;;;;;;;4160386;34;20674;-70
2021/03/17 05:57:28;;;;;;;15.63;11.07;;;;;;;;;;4149792;34;20278;-73
2021/03/17 05:59:54;;;;;;;25.83;12.53;;;;;;;;;;4156900;34;20337;-75
2021/03/17 06:02:21;;;;;;;18.20;10.83;;;;;;;;;;4154829;34;20266;-70
2021/03/17 06:04:49;;;;;;;16.17;10.03;;;;;;;;;;4133183;34;20333;-69
2021/03/17 06:07:21;;;;;;;15.83;11.73;;;;;;;;;;4143048;34;20241;-69
2021/03/17 06:09:47;;;;;;;12.53;9.40;;;;;;;;;;4148840;34;20344;-66
2021/03/17 06:12:14;;;;;;;13.47;8.57;;;;;;;;;;4147749;34;20212;-67
2021/03/17 06:14:43;;;;;;;14.37;9.90;;;;;;;;;;4146600;34;20227;-68
2021/03/17 06:17:13;;;;;;;18.43;12.10;;;;;;;;;;4156840;34;20279;-69
2021/03/17 06:19:43;;;;;;;11.10;9.20;;;;;;;;;;4146388;34;20384;-69
2021/03/17 06:22:09;;;;;;;14.23;10.80;;;;;;;;;;4146737;34;20239;-70
2021/03/17 06:24:36;;;;;;;17.13;10.73;;;;;;;;;;4154319;34;20248;-67
2021/03/17 06:27:05;;;;;;;15.00;12.57;;;;;;;;;;4143913;34;20199;-65
2021/03/17 06:29:31;;;;;;;13.13;10.17;;;;;;;;;;4155942;34;20231;-65
2021/03/17 06:31:56;;;;;;;15.90;11.63;;;;;;;;;;4146407;34;20299;-65
2021/03/17 06:34:22;;;;;;;20.40;14.10;;;;;;;;;;4145405;34;20257;-63
2021/03/17 06:36:53;;;;;;;19.70;12.00;;;;;;;;;;4156540;34;20756;-64
2021/03/17 06:39:20;;;;;;;14.03;9.90;;;;;;;;;;4156283;34;20570;-66
2021/03/17 06:41:52;;;;;;;14.30;11.50;;;;;;;;;;4147715;34;20224;-65
2021/03/17 06:44:25;;;;;;;12.63;9.67;;;;;;;;;;4158412;34;20661;-64
2021/03/17 06:47:19;;;;;;;14.97;10.33;;;;;;;;;;4150540;34;20280;-65
2021/03/17 06:49:51;;;;;;;12.40;8.60;;;;;;;;;;4150177;34;20255;-65
2021/03/17 06:52:27;;;;;;;13.57;9.90;;;;;;;;;;4154908;34;20310;-69
2021/03/17 06:55:12;;;;;;;12.87;9.30;;;;;;;;;;4154251;34;20262;-66
2021/03/17 06:57:42;;;;;;;13.67;9.23;;;;;;;;;;4148292;34;20212;-71
2021/03/17 07:00:25;;;;;;;11.17;8.13;;;;;;;;;;4145583;34;20330;-69
2021/03/17 07:03:06;;;;;;;11.77;7.70;;;;;;;;;;4146180;34;20223;-65
2021/03/17 07:05:37;;;;;;;13.20;9.17;;;;;;;;;;4160622;34;20678;-61
2021/03/17 07:08:06;;;;;;;9.60;7.10;;;;;;;;;;4152878;34;20306;-62
2021/03/17 07:10:42;;;;;;;9.30;7.20;;;;;;;;;;4149342;34;20363;-62
2021/03/17 07:13:10;;;;;;;13.77;7.10;;;;;;;;;;4148679;34;20412;-62
2021/03/17 07:15:37;;;;;;;9.93;7.03;;;;;;;;;;4150573;34;20236;-65
2021/03/17 07:18:27;;;;;;;9.73;7.00;;;;;;;;;;4153251;34;20237;-70
2021/03/17 07:21:01;;;;;;;7.67;6.07;;;;;;;;;;4149656;34;20576;-68
2021/03/17 07:23:44;;;;;;;14.37;9.77;;;;;;;;;;4154543;34;20293;-75
2021/03/17 07:26:19;;;;;;;15.07;11.13;;;;;;;;;;4152277;34;20368;-76
2021/03/17 07:28:51;;;;;;;20.87;14.73;;;;;;;;;;4158332;34;20428;-73
2021/03/17 07:31:19;;;;;;;12.73;9.23;;;;;;;;;;4149819;34;20842;-76
2021/03/17 07:33:45;;;;;;;9.70;6.70;;;;;;;;;;4151508;34;20690;-77
2021/03/17 07:36:28;;;;;;;12.57;8.63;;;;;;;;;;4148861;34;20215;-74
2021/03/17 07:38:56;;;;;;;13.83;8.33;;;;;;;;;;4159148;34;20309;-73
2021/03/17 07:41:24;;;;;;;15.87;10.50;;;;;;;;;;4169900;34;20251;-69
2021/03/17 08:01:58;;;;;;;11.93;6.50;;;;;;;;;;4285707;32;20508;-73
2021/03/17 08:04:30;;;;;;;7.70;5.10;;;;;;;;;;4315841;32;20246;-73
2021/03/17 08:06:57;;;;;;;6.43;4.53;;;;;;;;;;4326466;33;20297;-74
2021/03/17 08:09:23;;;;;;;7.77;4.60;;;;;;;;;;4328765;33;20227;-74
2021/03/17 08:11:51;;;;;;;11.10;4.57;;;;;;;;;;4332511;33;20438;-74
2021/03/17 08:14:18;;;;;;;5.63;4.67;;;;;;;;;;4340946;33;20234;-74
2021/03/17 08:16:44;;;;;;;6.57;4.90;;;;;;;;;;4329524;33;20657;-75
2021/03/17 08:19:24;;;;;;;7.30;3.87;;;;;;;;;;4312334;33;20357;-73
2021/03/17 08:21:59;;;;;;;5.87;4.70;;;;;;;;;;4331006;33;20277;-73
2021/03/17 08:24:38;;;;;;;9.40;5.53;;;;;;;;;;4323918;33;20435;-72
2021/03/17 08:27:06;;;;;;;12.30;5.57;;;;;;;;;;4324578;33;20219;-74
2021/03/17 08:30:02;;;;;;;5.13;4.40;;;;;;;;;;4312395;33;20265;-74
2021/03/17 08:32:52;;;;;;;7.17;5.17;;;;;;;;;;4333649;33;20209;-73
2021/03/17 08:35:18;;;;;;;7.20;4.43;;;;;;;;;;4317766;33;20249;-72
2021/03/17 08:37:52;;;;;;;8.13;5.40;;;;;;;;;;4325067;33;20272;-71
2021/03/17 08:40:38;;;;;;;5.37;4.17;;;;;;;;;;4325490;33;20317;-77
2021/03/17 08:43:29;;;;;;;9.60;5.40;;;;;;;;;;4322108;33;20254;-77
2021/03/17 08:46:18;;;;;;;5.87;4.37;;;;;;;;;;4334186;33;20234;-76
2021/03/17 08:48:57;;;;;;;6.60;4.53;;;;;;;;;;4328142;33;20238;-71
2021/03/17 08:51:44;;;;;;;5.33;3.80;;;;;;;;;;4335336;33;20273;-74
2021/03/17 08:54:29;;;;;;;5.03;3.33;;;;;;;;;;4315029;33;20850;-71
2021/03/17 08:56:55;;;;;;;9.20;5.60;;;;;;;;;;4325915;33;20289;-75
2021/03/17 08:59:21;;;;;;;5.57;4.13;;;;;;;;;;4330126;33;20363;-73
2021/03/17 09:01:47;;;;;;;7.53;4.10;;;;;;;;;;4321043;33;20269;-75
2021/03/17 09:04:50;;;;;;;8.53;4.90;;;;;;;;;;4307933;33;20605;-77
2021/03/17 09:07:18;;;;;;;7.30;5.60;;;;;;;;;;4318975;33;20312;-73
2021/03/17 09:09:49;;;;;;;8.27;4.63;;;;;;;;;;4312247;33;20250;-72
2021/03/17 09:12:16;;;;;;;12.33;5.80;;;;;;;;;;4320851;33;20215;-68
2021/03/17 09:14:42;;;;;;;6.23;3.87;;;;;;;;;;4313755;33;20817;-69
2021/03/17 09:17:23;;;;;;;9.73;3.80;;;;;;;;;;4309863;33;20487;-70
2021/03/17 09:19:57;;;;;;;6.23;4.23;;;;;;;;;;4316208;33;20843;-69
2021/03/17 09:22:37;;;;;;;7.33;3.83;;;;;;;;;;4316238;33;20684;-69
2021/03/17 09:25:18;;;;;;;7.77;4.57;;;;;;;;;;4312991;33;20396;-74
2021/03/17 09:27:56;;;;;;;5.90;4.10;;;;;;;;;;4311202;33;20215;-68
2021/03/17 09:30:25;;;;;;;9.80;4.73;;;;;;;;;;4305054;33;20668;-67
2021/03/17 09:33:00;;;;;;;6.27;4.33;;;;;;;;;;4330954;33;20199;-67
2021/03/17 09:35:26;;;;;;;6.47;4.10;;;;;;;;;;4319989;33;20289;-66
2021/03/17 09:38:02;;;;;;;8.10;5.07;;;;;;;;;;4314857;33;20361;-66
2021/03/17 09:40:37;;;;;;;4.03;3.60;;;;;;;;;;4321722;33;20259;-68
2021/03/17 09:43:03;;;;;;;5.50;3.70;;;;;;;;;;4320351;33;20195;-63
2021/03/17 09:45:29;;;;;;;5.57;4.03;;;;;;;;;;4320151;33;20369;-65
2021/03/17 09:47:57;;;;;;;7.63;4.40;;;;;;;;;;4321739;33;20328;-68
2021/03/17 09:50:25;;;;;;;19.37;7.63;;;;;;;;;;4315404;33;20235;-68
2021/03/17 09:52:50;;;;;;;19.43;5.43;;;;;;;;;;4314137;33;20215;-60
2021/03/17 09:55:30;;;;;;;8.97;6.50;;;;;;;;;;4314833;33;20725;-69
2021/03/17 09:58:04;;;;;;;7.57;6.50;;;;;;;;;;4316322;33;20345;-69
2021/03/17 10:00:31;;;;;;;15.77;9.50;;;;;;;;;;4307083;33;20292;-66
2021/03/17 10:02:58;;;;;;;11.30;7.83;;;;;;;;;;4308335;33;20258;-73
2021/03/17 10:05:24;;;;;;;9.87;7.43;;;;;;;;;;4329372;33;20289;-63
2021/03/17 10:07:50;;;;;;;16.90;10.23;;;;;;;;;;4314800;33;20282;-62
2021/03/17 10:10:16;;;;;;;5.50;4.33;;;;;;;;;;4311058;33;20294;-57
2021/03/17 10:12:43;;;;;;;10.80;7.40;;;;;;;;;;4313788;33;20389;-59
2021/03/17 10:15:11;;;;;;;8.77;6.37;;;;;;;;;;4331332;33;20718;-61
2021/03/17 10:17:37;;;;;;;8.67;5.70;;;;;;;;;;4321170;33;20246;-63
2021/03/17 10:20:10;;;;;;;19.13;5.37;;;;;;;;;;4328004;33;20227;-69
2021/03/17 10:22:36;;;;;;;8.43;4.90;;;;;;;;;;4314946;33;20511;-72
2021/03/17 10:25:23;;;;;;;12.87;4.97;;;;;;;;;;4315910;33;20571;-71
2021/03/17 10:28:06;;;;;;;7.97;5.50;;;;;;;;;;4334879;33;20221;-72
2021/03/17 10:30:41;;;;;;;8.17;4.80;;;;;;;;;;4315212;33;20465;-68
2021/03/17 10:33:11;;;;;;;8.37;5.87;;;;;;;;;;4330728;33;20593;-69
2021/03/17 10:35:37;;;;;;;13.30;4.97;;;;;;;;;;4321749;33;20309;-69
2021/03/17 10:38:03;;;;;;;4.77;3.60;;;;;;;;;;4327622;33;20317;-68
2021/03/17 10:40:31;;;;;;;7.23;3.50;;;;;;;;;;4333870;33;20314;-72
2021/03/17 10:42:59;;;;;;;6.27;3.57;;;;;;;;;;4324383;33;20279;-72
2021/03/17 10:45:29;;;;;;;5.03;4.20;;;;;;;;;;4333570;33;20218;-68
2021/03/17 10:47:55;;;;;;;5.33;4.07;;;;;;;;;;4332067;33;20733;-72
2021/03/17 10:50:35;;;;;;;8.10;5.00;;;;;;;;;;4316055;33;20395;-70
2021/03/17 10:53:13;;;;;;;5.10;4.10;;;;;;;;;;4319938;33;20242;-70
2021/03/17 10:55:39;;;;;;;5.30;3.77;;;;;;;;;;4309938;33;20292;-70
2021/03/17 10:58:14;;;;;;;8.10;4.03;;;;;;;;;;4312137;33;20803;-68
2021/03/17 11:00:41;;;;;;;7.03;4.60;;;;;;;;;;4329132;33;20309;-69
2021/03/17 11:03:28;;;;;;;16.47;7.90;;;;;;;;;;4330732;33;20261;-69
2021/03/17 11:06:33;;;;;;;9.37;6.07;;;;;;;;;;4327974;33;20251;-69
2021/03/17 11:09:01;;;;;;;5.80;4.80;;;;;;;;;;4302610;33;20227;-70
2021/03/17 11:11:27;;;;;;;6.93;4.90;;;;;;;;;;4309742;33;20286;-67
2021/03/17 11:13:52;;;;;;;10.73;7.87;;;;;;;;;;4317623;33;20794;-68
2021/03/17 11:16:37;;;;;;;9.30;3.93;;;;;;;;;;4332550;33;20313;-68
2021/03/17 11:19:10;;;;;;;5.03;4.40;;;;;;;;;;4326903;33;20265;-68
2021/03/17 11:21:38;;;;;;;6.00;4.40;;;;;;;;;;4327511;33;20235;-70
2021/03/17 11:24:06;;;;;;;7.63;6.50;;;;;;;;;;4327862;33;20262;-68
2021/03/17 11:26:38;;;;;;;7.33;4.83;;;;;;;;;;4327350;33;20487;-69
2021/03/17 11:29:14;;;;;;;9.80;6.93;;;;;;;;;;4313003;33;20234;-68
2021/03/17 11:31:40;;;;;;;7.83;6.17;;;;;;;;;;4328824;33;20219;-69
2021/03/17 11:34:08;;;;;;;9.97;7.03;;;;;;;;;;4314471;33;20344;-67
2021/03/17 11:36:33;;;;;;;7.20;4.50;;;;;;;;;;4325790;33;20282;-67
2021/03/17 11:39:06;;;;;;;16.67;8.90;;;;;;;;;;4326075;33;20297;-69
2021/03/17 11:41:32;;;;;;;9.87;7.03;;;;;;;;;;4316929;33;20695;-71
2021/03/17 11:43:57;;;;;;;11.03;7.53;;;;;;;;;;4326713;33;20376;-69
2021/03/17 11:46:23;;;;;;;15.37;6.63;;;;;;;;;;4329494;33;20754;-71
2021/03/17 11:48:49;;;;;;;18.40;7.10;;;;;;;;;;4332464;33;20293;-68
2021/03/17 11:51:15;;;;;;;8.40;5.73;;;;;;;;;;4320047;33;20234;-69
2021/03/17 11:53:42;;;;;;;6.60;5.67;;;;;;;;;;4322562;33;20344;-70
2021/03/17 11:56:10;;;;;;;17.87;5.93;;;;;;;;;;4311670;33;20232;-70
2021/03/17 11:58:37;;;;;;;11.07;4.60;;;;;;;;;;4329418;33;20286;-70
2021/03/17 12:01:04;;;;;;;5.57;4.70;;;;;;;;;;4326006;33;20251;-69
2021/03/17 12:03:31;;;;;;;6.57;4.40;;;;;;;;;;4314037;33;20285;-69
2021/03/17 12:05:57;;;;;;;7.10;5.17;;;;;;;;;;4316305;33;20231;-70
2021/03/17 12:08:23;;;;;;;5.37;4.53;;;;;;;;;;4331603;33;20340;-70
2021/03/17 12:10:51;;;;;;;12.33;5.23;;;;;;;;;;4328165;33;20298;-71
2021/03/17 12:13:20;;;;;;;10.37;7.30;;;;;;;;;;4331046;33;20215;-68
2021/03/17 12:15:46;;;;;;;12.40;7.20;;;;;;;;;;4331877;33;20218;-69
2021/03/17 12:18:12;;;;;;;5.33;4.17;;;;;;;;;;4318734;33;20281;-69
2021/03/17 12:20:39;;;;;;;6.80;5.03;;;;;;;;;;4315900;33;20246;-68
2021/03/17 12:23:04;;;;;;;4.40;3.23;;;;;;;;;;4330255;33;20270;-67
2021/03/17 12:25:30;;;;;;;5.27;4.67;;;;;;;;;;4324212;33;20230;-68
2021/03/17 12:27:56;;;;;;;4.23;3.50;;;;;;;;;;4328758;33;20515;-68
2021/03/17 12:30:22;;;;;;;7.23;5.57;;;;;;;;;;4337081;33;20325;-67
2021/03/17 12:32:50;;;;;;;6.20;4.80;;;;;;;;;;4331863;33;20359;-65
2021/03/17 12:35:17;;;;;;;4.80;4.30;;;;;;;;;;4320528;33;20224;-67
2021/03/17 12:37:46;;;;;;;6.67;5.87;;;;;;;;;;4324379;33;20308;-68
2021/03/17 12:40:14;;;;;;;4.73;4.23;;;;;;;;;;4328749;33;20313;-68
2021/03/17 12:42:41;;;;;;;4.13;3.63;;;;;;;;;;4331561;33;20219;-69
2021/03/17 12:45:09;;;;;;;7.87;5.27;;;;;;;;;;4331159;33;20257;-69
2021/03/17 12:47:35;;;;;;;8.40;5.60;;;;;;;;;;4325473;33;20218;-69
2021/03/17 12:50:06;;;;;;;5.10;4.60;;;;;;;;;;4328797;33;20257;-69
2021/03/17 12:52:31;;;;;;;7.83;5.97;;;;;;;;;;4335657;33;20301;-68
2021/03/17 12:54:57;;;;;;;9.10;6.00;;;;;;;;;;4331850;33;20230;-71
2021/03/17 12:57:23;;;;;;;10.40;5.40;;;;;;;;;;4317498;33;20434;-68
2021/03/17 12:59:48;;;;;;;7.03;5.60;;;;;;;;;;4334027;33;20397;-67
2021/03/17 13:02:14;;;;;;;9.93;5.93;;;;;;;;;;4328631;33;20341;-68
2021/03/17 13:04:40;;;;;;;7.73;5.87;;;;;;;;;;4309480;33;20676;-68
2021/03/17 13:07:05;;;;;;;10.43;4.33;;;;;;;;;;4299811;33;20635;-65
2021/03/17 13:09:31;;;;;;;7.07;4.93;;;;;;;;;;4328331;33;20255;-64
2021/03/17 13:11:57;;;;;;;5.40;4.90;;;;;;;;;;4314704;33;20375;-60
2021/03/17 13:14:24;;;;;;;9.83;7.10;;;;;;;;;;4328733;33;20715;-61
2021/03/17 13:16:53;;;;;;;5.27;4.63;;;;;;;;;;4320972;33;20218;-60
2021/03/17 13:19:20;;;;;;;9.60;6.53;;;;;;;;;;4328719;33;20219;-61
2021/03/17 13:21:48;;;;;;;5.63;4.67;;;;;;;;;;4326147;33;20262;-61
2021/03/17 13:24:15;;;;;;;11.93;6.37;;;;;;;;;;4327501;33;20245;-61
2021/03/17 13:26:41;;;;;;;5.87;4.83;;;;;;;;;;4324136;33;20237;-61
2021/03/17 13:29:06;;;;;;;6.17;4.57;;;;;;;;;;4299916;33;20314;-60
2021/03/17 13:31:32;;;;;;;8.07;6.23;;;;;;;;;;4323382;33;20270;-61
2021/03/17 13:33:58;;;;;;;13.27;7.20;;;;;;;;;;4309181;33;20227;-61
2021/03/17 13:36:23;;;;;;;9.83;7.33;;;;;;;;;;4324337;33;20697;-62
2021/03/17 13:38:49;;;;;;;6.20;4.87;;;;;;;;;;4322820;33;20725;-61
2021/03/17 13:41:15;;;;;;;10.97;6.27;;;;;;;;;;4324697;33;20670;-62
2021/03/17 13:43:40;;;;;;;11.57;6.77;;;;;;;;;;4323157;33;20368;-62
2021/03/17 13:46:07;;;;;;;8.13;5.80;;;;;;;;;;4313924;33;20227;-62
2021/03/17 13:48:32;;;;;;;7.57;5.77;;;;;;;;;;4305833;33;20334;-65
2021/03/17 13:50:58;;;;;;;9.60;5.97;;;;;;;;;;4321085;33;20664;-66
2021/03/17 13:53:24;;;;;;;10.00;7.37;;;;;;;;;;4320604;33;20559;-63
2021/03/17 13:55:49;;;;;;;17.80;11.17;;;;;;;;;;4326350;33;20659;-63
2021/03/17 13:58:15;;;;;;;22.07;13.97;;;;;;;;;;4327839;33;20352;-62
2021/03/17 14:00:41;;;;;;;20.47;12.63;;;;;;;;;;4321252;33;20207;-63
2021/03/17 14:03:06;;;;;;;16.80;8.63;;;;;;;;;;4306447;33;20329;-65
2021/03/17 14:05:32;;;;;;;10.67;7.30;;;;;;;;;;4323612;33;20305;-66
2021/03/17 14:07:58;;;;;;;10.53;7.93;;;;;;;;;;4322678;33;20306;-64
2021/03/17 14:10:27;;;;;;;18.53;11.40;;;;;;;;;;4310618;33;20369;-63
2021/03/17 14:12:53;;;;;;;8.47;6.47;;;;;;;;;;4322806;33;20324;-63
2021/03/17 14:15:20;;;;;;;22.47;13.20;;;;;;;;;;4320782;33;20284;-63
2021/03/17 14:17:47;;;;;;;24.40;12.30;;;;;;;;;;4321446;33;20671;-64
2021/03/17 14:20:15;;;;;;;16.20;8.07;;;;;;;;;;4323584;33;20731;-63
2021/03/17 14:22:41;;;;;;;10.97;7.63;;;;;;;;;;4325889;33;20223;-65
2021/03/17 14:25:08;;;;;;;17.20;11.43;;;;;;;;;;4325890;33;20337;-63
2021/03/17 14:27:34;;;;;;;16.73;11.83;;;;;;;;;;4324904;33;20267;-64
2021/03/17 14:30:00;;;;;;;10.00;7.30;;;;;;;;;;4326123;33;20240;-63
2021/03/17 14:32:26;;;;;;;8.73;6.40;;;;;;;;;;4307438;33;20380;-64
2021/03/17 14:34:51;;;;;;;11.10;7.77;;;;;;;;;;4312681;33;20253;-63
2021/03/17 14:37:17;;;;;;;16.27;9.63;;;;;;;;;;4324725;33;20215;-62
2021/03/17 14:39:43;;;;;;;14.70;8.57;;;;;;;;;;4327177;33;20664;-63
2021/03/17 14:42:09;;;;;;;15.23;9.07;;;;;;;;;;4325162;33;20424;-63
2021/03/17 14:44:35;;;;;;;21.67;11.10;;;;;;;;;;4325717;33;20356;-64
2021/03/17 14:47:00;;;;;;;19.30;11.73;;;;;;;;;;4324893;33;20298;-63
2021/03/17 14:49:26;;;;;;;15.47;7.47;;;;;;;;;;4324933;33;20657;-63
2021/03/17 14:51:52;;;;;;;18.70;11.47;;;;;;;;;;4323026;33;20726;-65
2021/03/17 14:54:17;;;;;;;23.20;10.50;;;;;;;;;;4311007;33;20560;-63
2021/03/17 14:56:43;;;;;;;18.93;10.40;;;;;;;;;;4307653;33;20282;-61
2021/03/17 14:59:08;;;;;;;22.17;13.27;;;;;;;;;;4323540;33;20857;-63
2021/03/17 15:01:34;;;;;;;32.03;16.17;;;;;;;;;;4323734;33;20325;-62
2021/03/17 15:03:59;;;;;;;21.47;12.33;;;;;;;;;;4323362;33;20487;-64